Time;durP1;ratioP1;P1;durP2;ratioP2;P2;SDS_P1;SDS_P2;PMS_P1;PMS_P2;Temp;Humidity;BMP_temperature;BMP_pressure;BME280_temperature;BME280_humidity;BME280_pressure;Samples;Min_cycle;Max_cycle;Signal;HPM_P1;HPM_P2
2023/05/15 00:02:12;;;;;;;10.95;5.40;;;;;;;9.10;68.06;100030.16;7351877;19;20002;-74
2023/05/15 00:04:36;;;;;;;10.05;5.10;;;;;;;9.06;68.34;100029.47;7351616;19;20002;-68
2023/05/15 00:07:01;;;;;;;7.38;5.32;;;;;;;9.05;68.67;100030.41;7344390;19;20015;-64
2023/05/15 00:09:26;;;;;;;7.90;4.53;;;;;;;9.04;68.41;100028.69;7347177;19;20029;-64
2023/05/15 00:11:52;;;;;;;10.38;4.82;;;;;;;9.04;67.94;100028.69;7345494;19;20018;-66
2023/05/15 00:14:16;;;;;;;9.07;4.88;;;;;;;9.06;68.45;100037.44;7346183;19;20022;-66
2023/05/15 00:16:41;;;;;;;8.07;5.10;;;;;;;9.06;68.50;100032.13;7343903;19;20041;-65
2023/05/15 00:19:06;;;;;;;8.77;4.82;;;;;;;9.05;68.76;100033.06;7342806;19;20479;-65
2023/05/15 00:21:31;;;;;;;9.98;5.13;;;;;;;9.05;68.84;100040.19;7345156;19;20010;-65
2023/05/15 00:23:57;;;;;;;9.15;4.57;;;;;;;9.04;68.80;100036.69;7346502;19;20090;-66
2023/05/15 00:26:22;;;;;;;6.57;4.50;;;;;;;9.03;69.07;100037.63;7343458;19;20359;-66
2023/05/15 00:28:47;;;;;;;8.45;4.22;;;;;;;9.07;68.60;100044.47;7344454;19;20573;-65
2023/05/15 00:31:13;;;;;;;10.80;4.50;;;;;;;9.08;68.65;100043.53;7344602;19;20409;-66
2023/05/15 00:33:38;;;;;;;8.00;4.57;;;;;;;9.04;69.23;100044.66;7343829;19;20082;-65
2023/05/15 00:36:03;;;;;;;10.00;4.72;;;;;;;9.01;69.04;100044.84;7341783;19;20022;-65
2023/05/15 00:38:28;;;;;;;11.15;4.93;;;;;;;9.00;69.33;100039.63;7344185;19;20014;-66
2023/05/15 00:40:54;;;;;;;7.78;4.47;;;;;;;8.98;69.40;100034.38;7345652;19;20031;-65
2023/05/15 00:43:19;;;;;;;8.27;4.75;;;;;;;8.95;69.68;100039.88;7346268;19;20035;-66
2023/05/15 00:45:46;;;;;;;7.93;5.10;;;;;;;8.92;69.70;100037.38;7343981;19;20022;-66
2023/05/15 00:48:15;;;;;;;13.75;4.50;;;;;;;8.90;69.79;100046.44;7343587;19;20019;-66
2023/05/15 00:50:42;;;;;;;12.55;5.05;;;;;;;8.88;70.05;100045.66;7342454;19;20019;-67
2023/05/15 00:53:07;;;;;;;6.97;4.20;;;;;;;8.84;70.22;100041.44;7342259;19;20476;-65
2023/05/15 00:55:33;;;;;;;8.60;4.43;;;;;;;8.80;70.07;100043.44;7343369;19;20081;-65
2023/05/15 00:58:00;;;;;;;7.45;4.88;;;;;;;8.79;70.37;100049.72;7343618;19;20465;-65
2023/05/15 01:00:25;;;;;;;9.23;4.70;;;;;;;8.74;70.29;100043.78;7345040;19;20018;-65
2023/05/15 01:02:49;;;;;;;7.32;4.40;;;;;;;8.72;70.65;100045.66;7343047;19;20025;-64
2023/05/15 01:05:14;;;;;;;5.90;4.78;;;;;;;8.70;70.44;100043.09;7341027;19;20465;-63
2023/05/15 01:08:04;;;;;;;8.55;4.68;;;;;;;8.78;70.63;100048.00;7341189;19;20434;-65
2023/05/15 01:10:30;;;;;;;10.65;4.65;;;;;;;8.69;70.65;100059.16;7342257;19;20022;-65
2023/05/15 01:12:56;;;;;;;7.68;4.65;;;;;;;8.69;70.90;100053.84;7339924;19;20025;-66
2023/05/15 01:15:22;;;;;;;6.70;4.18;;;;;;;8.68;70.95;100062.75;7341456;19;20018;-67
2023/05/15 01:17:47;;;;;;;7.38;4.72;;;;;;;8.65;70.72;100052.28;7340207;19;20659;-71
2023/05/15 01:20:17;;;;;;;15.23;5.97;;;;;;;8.63;71.00;100049.72;7343514;19;20363;-67
2023/05/15 01:22:50;;;;;;;7.13;4.47;;;;;;;8.60;70.71;100049.88;7345098;19;20033;-66
2023/05/15 01:25:27;;;;;;;9.23;4.90;;;;;;;8.66;70.94;100052.22;7341764;19;20018;-69
2023/05/15 01:27:55;;;;;;;11.18;5.38;;;;;;;8.62;71.06;100044.47;7344477;19;20018;-72
2023/05/15 01:30:30;;;;;;;14.45;5.10;;;;;;;8.61;71.14;100050.75;7343518;19;20466;-69
2023/05/15 01:33:11;;;;;;;8.07;4.40;;;;;;;8.66;71.16;100051.34;7338860;19;20015;-68
2023/05/15 01:35:51;;;;;;;8.02;4.88;;;;;;;8.65;71.09;100054.94;7345097;19;20015;-74
2023/05/15 01:38:17;;;;;;;9.13;4.45;;;;;;;8.66;71.29;100054.00;7340068;19;20945;-67
2023/05/15 01:40:44;;;;;;;11.70;5.18;;;;;;;8.67;70.71;100058.38;7340264;19;20021;-70
2023/05/15 01:43:16;;;;;;;9.93;5.20;;;;;;;8.69;70.48;100048.53;7341167;19;20015;-70
2023/05/15 01:45:44;;;;;;;9.95;5.00;;;;;;;8.70;70.78;100061.69;7341651;19;20031;-65
2023/05/15 01:48:12;;;;;;;16.77;5.50;;;;;;;8.72;70.79;100051.84;7349353;19;20030;-70
2023/05/15 01:50:39;;;;;;;8.23;4.78;;;;;;;8.78;70.81;100068.41;7351975;19;20027;-72
2023/05/15 01:53:06;;;;;;;8.20;4.63;;;;;;;8.82;70.96;100059.28;7354671;19;20034;-71
2023/05/15 01:55:32;;;;;;;9.00;5.68;;;;;;;8.86;70.99;100058.19;7361208;19;20035;-72
2023/05/15 01:58:01;;;;;;;9.90;4.90;;;;;;;8.97;70.99;100058.41;7361854;19;20003;-70
2023/05/15 02:00:28;;;;;;;8.10;4.95;;;;;;;9.02;70.87;100065.19;7371756;19;20011;-72
2023/05/15 02:02:57;;;;;;;11.05;5.70;;;;;;;9.12;70.49;100077.94;7361015;19;20015;-71
2023/05/15 02:05:22;;;;;;;10.52;4.97;;;;;;;9.13;70.63;100069.88;7362545;19;20043;-76
2023/05/15 02:07:48;;;;;;;9.40;5.38;;;;;;;9.18;70.34;100069.59;7364677;19;20403;-76
2023/05/15 02:10:14;;;;;;;8.02;5.20;;;;;;;9.27;70.19;100074.34;7369562;19;20034;-75
2023/05/15 02:12:46;;;;;;;10.00;5.72;;;;;;;9.31;70.15;100068.78;7371780;19;20028;-70
2023/05/15 02:15:12;;;;;;;22.42;6.22;;;;;;;9.40;69.73;100072.69;7368205;19;20018;-75
2023/05/15 02:17:43;;;;;;;9.05;5.10;;;;;;;9.46;69.83;100064.34;7349698;19;20021;-71
2023/05/15 02:20:09;;;;;;;7.15;5.28;;;;;;;9.54;69.54;100062.06;7354607;19;20015;-73
2023/05/15 02:22:35;;;;;;;13.13;5.60;;;;;;;9.61;69.49;100063.41;7378322;19;20037;-71
2023/05/15 02:25:00;;;;;;;8.45;4.57;;;;;;;9.67;69.49;100055.06;7375543;19;20018;-75
2023/05/15 02:27:32;;;;;;;11.82;5.53;;;;;;;9.76;69.30;100064.28;7375131;19;20058;-68
2023/05/15 02:30:18;;;;;;;8.15;5.00;;;;;;;9.89;69.52;100064.38;7365434;19;20087;-68
2023/05/15 02:32:53;;;;;;;8.00;5.07;;;;;;;10.06;69.42;100067.69;7372085;19;20363;-74
2023/05/15 02:35:40;;;;;;;10.45;5.45;;;;;;;10.17;69.09;100064.34;7371440;19;20014;-69
2023/05/15 02:38:10;;;;;;;11.32;5.53;;;;;;;10.25;69.03;100072.78;7358184;19;20304;-69
2023/05/15 02:40:36;;;;;;;11.50;5.40;;;;;;;10.30;68.50;100062.66;7350291;19;20030;-69
2023/05/15 02:43:04;;;;;;;11.10;5.57;;;;;;;10.42;68.49;100069.88;7345480;19;20346;-69
2023/05/15 02:45:30;;;;;;;12.82;5.70;;;;;;;10.54;68.08;100078.91;7349923;19;20226;-69
2023/05/15 02:47:55;;;;;;;11.07;5.55;;;;;;;10.64;67.91;100069.34;7351604;19;20349;-67
2023/05/15 02:50:20;;;;;;;9.88;5.10;;;;;;;10.78;67.61;100073.78;7359413;19;20014;-69
2023/05/15 02:52:45;;;;;;;11.45;5.85;;;;;;;10.91;67.38;100064.88;7365714;19;20051;-68
2023/05/15 02:55:09;;;;;;;13.10;5.85;;;;;;;11.05;67.29;100068.47;7365930;19;20014;-69
2023/05/15 02:57:34;;;;;;;10.23;6.22;;;;;;;11.19;67.14;100071.91;7361586;19;20018;-68
2023/05/15 02:59:59;;;;;;;11.07;5.78;;;;;;;11.32;66.86;100071.94;7346207;19;20022;-68
2023/05/15 03:02:24;;;;;;;13.00;6.32;;;;;;;11.48;66.59;100066.41;7350056;19;20030;-70
2023/05/15 03:04:48;;;;;;;7.53;5.07;;;;;;;11.63;66.02;100071.53;7351289;19;20014;-68
2023/05/15 03:07:13;;;;;;;12.32;5.63;;;;;;;11.78;65.59;100079.50;7350990;19;20029;-67
2023/05/15 03:09:38;;;;;;;11.30;5.97;;;;;;;11.92;65.08;100069.56;7358973;19;20025;-67
2023/05/15 03:12:03;;;;;;;10.48;6.28;;;;;;;12.04;64.51;100069.66;7358437;19;20011;-69
2023/05/15 03:14:27;;;;;;;13.02;6.35;;;;;;;12.19;63.86;100073.94;7354735;19;20027;-66
2023/05/15 03:16:54;;;;;;;16.45;7.35;;;;;;;12.31;63.10;100079.22;7350310;19;20018;-67
2023/05/15 03:19:19;;;;;;;13.80;6.72;;;;;;;12.46;63.07;100081.75;7349119;19;20038;-70
2023/05/15 03:21:45;;;;;;;8.32;5.97;;;;;;;12.59;62.93;100077.25;7353100;19;20015;-72
2023/05/15 03:24:10;;;;;;;18.45;8.02;;;;;;;12.77;62.16;100085.72;7353682;19;20019;-73
2023/05/15 03:26:35;;;;;;;12.25;7.63;;;;;;;12.88;60.64;100083.13;7351390;19;20358;-73
2023/05/15 03:29:01;;;;;;;14.18;7.10;;;;;;;12.98;59.50;100092.19;7349867;19;20071;-73
2023/05/15 03:31:25;;;;;;;16.90;7.45;;;;;;;13.08;58.49;100088.72;7346986;19;20015;-72
2023/05/15 03:33:50;;;;;;;11.55;7.20;;;;;;;13.19;57.74;100089.78;7347026;19;20018;-73
2023/05/15 03:36:16;;;;;;;17.45;8.45;;;;;;;13.29;57.31;100094.31;7347256;19;20019;-74
2023/05/15 03:38:43;;;;;;;12.27;7.70;;;;;;;13.38;56.69;100088.25;7348438;19;20014;-73
2023/05/15 03:41:07;;;;;;;12.50;7.38;;;;;;;13.48;56.07;100087.53;7347712;19;20022;-72
2023/05/15 03:43:33;;;;;;;18.17;8.10;;;;;;;13.58;55.92;100091.22;7347356;19;20021;-74
2023/05/15 03:45:59;;;;;;;11.50;7.28;;;;;;;13.68;55.53;100089.53;7346333;19;20051;-74
2023/05/15 03:48:23;;;;;;;18.15;7.88;;;;;;;13.76;55.09;100079.97;7348154;19;20026;-73
2023/05/15 03:50:48;;;;;;;12.93;7.40;;;;;;;13.87;54.91;100079.13;7343081;19;20050;-73
2023/05/15 03:53:13;;;;;;;9.82;7.03;;;;;;;13.96;54.57;100077.53;7343147;19;20018;-73
2023/05/15 03:55:37;;;;;;;12.93;8.10;;;;;;;14.05;54.71;100085.72;7344604;19;20105;-74
2023/05/15 03:58:03;;;;;;;14.95;7.47;;;;;;;14.15;54.35;100083.16;7344413;19;20014;-73
2023/05/15 04:00:28;;;;;;;11.95;7.72;;;;;;;14.29;54.07;100084.75;7343353;19;20010;-74
2023/05/15 04:02:53;;;;;;;14.18;7.68;;;;;;;14.44;53.83;100079.06;7348655;19;20497;-73
2023/05/15 04:05:20;;;;;;;11.65;7.60;;;;;;;14.57;53.68;100078.88;7341192;19;20015;-73
2023/05/15 04:07:45;;;;;;;16.58;7.63;;;;;;;14.72;52.72;100079.47;7344532;19;20086;-75
2023/05/15 04:10:09;;;;;;;11.52;6.80;;;;;;;14.84;52.41;100083.84;7346723;19;20039;-74
2023/05/15 04:12:35;;;;;;;14.10;8.98;;;;;;;14.95;52.55;100082.97;7345363;19;20034;-75
2023/05/15 04:15:23;;;;;;;16.08;7.30;;;;;;;15.21;52.20;100084.34;7347430;19;20022;-73
2023/05/15 04:17:50;;;;;;;18.08;6.70;;;;;;;15.30;51.40;100086.25;7343970;19;20022;-67
2023/05/15 04:20:20;;;;;;;15.48;8.13;;;;;;;15.43;50.55;100088.75;7341907;19;20055;-69
2023/05/15 04:22:46;;;;;;;11.43;6.18;;;;;;;15.64;50.46;100086.97;7345111;19;20383;-68
2023/05/15 04:25:14;;;;;;;12.98;5.80;;;;;;;15.90;49.75;100087.41;7343210;19;20330;-67
2023/05/15 04:27:41;;;;;;;11.50;6.35;;;;;;;16.12;48.95;100081.88;7344005;19;20029;-67
2023/05/15 04:30:07;;;;;;;9.48;5.57;;;;;;;16.27;48.24;100085.91;7342873;19;20070;-68
2023/05/15 04:32:34;;;;;;;7.82;5.13;;;;;;;16.51;47.49;100087.41;7341378;19;20086;-67
2023/05/15 04:35:11;;;;;;;8.75;4.93;;;;;;;16.88;46.34;100083.16;7341349;19;20032;-69
2023/05/15 04:37:41;;;;;;;7.47;4.10;;;;;;;17.34;45.51;100085.19;7340777;19;20026;-68
2023/05/15 04:40:08;;;;;;;6.90;4.68;;;;;;;17.63;44.84;100076.25;7344218;19;20333;-68
2023/05/15 04:42:35;;;;;;;6.40;4.47;;;;;;;17.93;44.18;100080.59;7338704;19;20093;-69
2023/05/15 04:45:01;;;;;;;8.13;4.50;;;;;;;18.00;43.22;100087.09;7340359;19;20533;-70
2023/05/15 04:47:31;;;;;;;7.80;4.40;;;;;;;18.12;42.58;100083.22;7341692;19;20022;-68
2023/05/15 04:49:56;;;;;;;5.38;3.60;;;;;;;18.29;42.55;100081.59;7342601;19;20019;-68
2023/05/15 04:52:21;;;;;;;5.22;3.65;;;;;;;18.41;41.94;100083.97;7343577;19;20014;-74
2023/05/15 04:54:51;;;;;;;7.28;4.55;;;;;;;18.52;41.28;100083.75;7344927;19;20083;-74
2023/05/15 04:57:17;;;;;;;5.88;4.13;;;;;;;18.57;41.09;100086.03;7342964;19;20010;-74
2023/05/15 04:59:42;;;;;;;9.98;4.30;;;;;;;18.63;41.04;100082.75;7344630;19;20027;-75
2023/05/15 05:02:09;;;;;;;4.95;3.80;;;;;;;18.81;40.38;100089.06;7342533;19;20014;-73
2023/05/15 05:04:33;;;;;;;5.10;3.47;;;;;;;18.92;40.04;100088.00;7343483;19;20089;-73
2023/05/15 05:06:58;;;;;;;6.28;3.90;;;;;;;18.73;39.91;100083.56;7343811;19;20023;-74
2023/05/15 05:09:23;;;;;;;8.45;4.57;;;;;;;18.73;39.81;100080.03;7348272;19;20452;-73
2023/05/15 05:11:47;;;;;;;6.00;3.60;;;;;;;18.93;39.86;100078.03;7343236;19;20006;-74
2023/05/15 05:14:14;;;;;;;5.15;3.65;;;;;;;19.01;39.16;100088.94;7343255;19;20010;-73
2023/05/15 05:16:44;;;;;;;4.28;2.90;;;;;;;18.86;38.76;100085.88;7341899;19;20023;-73
2023/05/15 05:19:08;;;;;;;4.10;3.20;;;;;;;19.00;39.32;100085.38;7341686;19;20039;-72
2023/05/15 05:21:33;;;;;;;6.88;3.55;;;;;;;19.29;39.02;100079.78;7341113;19;20010;-74
2023/05/15 05:23:58;;;;;;;7.68;3.47;;;;;;;19.65;38.41;100074.34;7342619;19;20021;-75
2023/05/15 05:26:23;;;;;;;6.00;3.72;;;;;;;20.08;38.26;100073.47;7342245;19;20339;-69
2023/05/15 05:28:47;;;;;;;6.68;2.90;;;;;;;20.38;37.18;100069.44;7341601;19;20353;-68
2023/05/15 05:31:14;;;;;;;6.00;3.63;;;;;;;20.50;36.33;100081.69;7341303;19;20007;-68
2023/05/15 05:33:39;;;;;;;9.10;3.60;;;;;;;20.66;36.56;100071.75;7342072;19;20029;-68
2023/05/15 05:36:04;;;;;;;8.15;3.85;;;;;;;20.79;36.10;100076.69;7339298;19;20031;-66
2023/05/15 05:38:29;;;;;;;6.35;3.67;;;;;;;20.97;35.25;100076.59;7339679;19;20021;-68
2023/05/15 05:40:54;;;;;;;6.82;3.45;;;;;;;21.23;35.39;100077.34;7339730;19;20028;-68
2023/05/15 05:43:19;;;;;;;6.07;4.38;;;;;;;21.58;35.01;100070.75;7340197;19;20025;-71
2023/05/15 05:45:44;;;;;;;5.85;4.05;;;;;;;21.95;34.15;100074.81;7340765;19;20815;-66
2023/05/15 05:48:09;;;;;;;7.88;3.78;;;;;;;22.60;34.32;100067.34;7340511;19;20031;-68
2023/05/15 05:50:34;;;;;;;7.65;3.55;;;;;;;23.31;33.29;100060.84;7339661;19;20015;-67
2023/05/15 05:52:59;;;;;;;7.38;4.10;;;;;;;23.92;32.43;100061.72;7340105;19;20462;-69
2023/05/15 05:55:24;;;;;;;8.73;4.05;;;;;;;24.63;31.53;100059.38;7344046;19;20583;-66
2023/05/15 05:57:49;;;;;;;10.75;4.25;;;;;;;25.11;30.59;100060.63;7345449;19;20011;-67
2023/05/15 06:00:15;;;;;;;5.55;3.60;;;;;;;25.13;29.67;100055.84;7342629;19;20019;-67
2023/05/15 06:02:39;;;;;;;4.68;3.58;;;;;;;25.33;29.16;100056.88;7346932;19;20470;-69
2023/05/15 06:05:06;;;;;;;8.63;3.25;;;;;;;25.23;29.24;100056.34;7345606;19;20453;-69
2023/05/15 06:07:31;;;;;;;5.93;4.03;;;;;;;25.94;29.03;100054.53;7345671;19;20042;-68
2023/05/15 06:09:55;;;;;;;4.63;3.60;;;;;;;26.84;28.21;100051.69;7345373;19;20453;-67
2023/05/15 06:12:20;;;;;;;6.75;4.35;;;;;;;27.20;27.36;100051.38;7346943;19;20014;-68
2023/05/15 06:14:45;;;;;;;5.88;3.15;;;;;;;27.86;26.80;100047.91;7347582;19;20042;-68
2023/05/15 06:17:11;;;;;;;4.28;3.53;;;;;;;28.27;26.02;100045.75;7346965;19;20018;-69
2023/05/15 06:19:36;;;;;;;6.20;3.50;;;;;;;28.61;25.73;100044.59;7343141;19;20019;-69
2023/05/15 06:22:01;;;;;;;6.40;4.40;;;;;;;28.74;25.60;100040.97;7349956;19;20028;-68
2023/05/15 06:24:26;;;;;;;7.88;3.40;;;;;;;28.78;25.15;100048.56;7345922;19;20465;-73
2023/05/15 06:26:51;;;;;;;8.43;3.42;;;;;;;28.80;25.07;100054.69;7344565;19;20360;-73
2023/05/15 06:29:16;;;;;;;9.27;3.17;;;;;;;28.99;24.58;100046.59;7345634;19;20412;-72
2023/05/15 06:31:41;;;;;;;3.72;3.13;;;;;;;28.38;25.07;100039.63;7344717;19;20504;-73
2023/05/15 06:34:05;;;;;;;10.85;3.65;;;;;;;28.63;25.21;100041.66;7345767;19;20024;-73
2023/05/15 06:36:30;;;;;;;4.65;3.05;;;;;;;28.62;24.36;100040.81;7346730;19;20021;-73
2023/05/15 06:38:55;;;;;;;6.57;3.47;;;;;;;28.65;24.22;100040.38;7345388;19;20018;-72
2023/05/15 06:41:20;;;;;;;8.90;3.45;;;;;;;28.07;24.86;100042.19;7345418;19;20011;-72
2023/05/15 06:43:45;;;;;;;4.13;3.58;;;;;;;28.01;24.83;100043.88;7344220;19;20022;-71
2023/05/15 06:46:10;;;;;;;6.93;3.83;;;;;;;29.01;24.89;100045.28;7345770;19;20014;-72
2023/05/15 06:48:35;;;;;;;7.25;3.90;;;;;;;29.96;23.46;100040.63;7344855;19;20025;-72
2023/05/15 06:51:00;;;;;;;6.65;3.65;;;;;;;30.54;22.94;100046.59;7344516;19;20357;-73
2023/05/15 06:53:24;;;;;;;4.88;2.72;;;;;;;31.24;22.45;100035.97;7343990;19;20346;-72
2023/05/15 06:55:49;;;;;;;6.88;3.33;;;;;;;30.97;22.29;100038.22;7343751;19;20342;-67
2023/05/15 06:58:16;;;;;;;5.20;3.17;;;;;;;31.56;22.08;100039.28;7345457;19;20011;-67
2023/05/15 07:00:43;;;;;;;6.63;2.92;;;;;;;32.58;21.74;100039.81;7350089;19;20022;-68
2023/05/15 07:03:07;;;;;;;3.60;3.28;;;;;;;32.75;20.85;100043.50;7345343;19;20342;-69
2023/05/15 07:05:33;;;;;;;4.63;2.80;;;;;;;33.03;20.33;100047.38;7343233;19;20034;-68
2023/05/15 07:07:58;;;;;;;4.93;3.08;;;;;;;33.68;19.82;100046.94;7342892;19;20030;-68
2023/05/15 07:10:23;;;;;;;5.03;3.70;;;;;;;34.60;19.46;100034.28;7344356;19;20010;-67
2023/05/15 07:12:48;;;;;;;7.53;4.40;;;;;;;35.40;18.79;100035.50;7344787;19;20014;-67
2023/05/15 07:15:13;;;;;;;5.18;3.50;;;;;;;35.41;18.19;100039.13;7343602;19;20362;-67
2023/05/15 07:17:38;;;;;;;4.38;3.80;;;;;;;33.69;19.01;100043.09;7344970;19;20102;-67
2023/05/15 07:20:04;;;;;;;6.75;3.45;;;;;;;33.48;19.27;100034.44;7342912;19;20421;-68
2023/05/15 07:22:31;;;;;;;7.38;4.00;;;;;;;33.67;19.64;100036.97;7347239;19;20449;-67
2023/05/15 07:24:56;;;;;;;4.72;3.78;;;;;;;34.58;19.08;100030.91;7344317;19;20377;-67
2023/05/15 07:27:20;;;;;;;9.90;3.92;;;;;;;35.63;18.63;100026.00;7347166;19;20358;-69
2023/05/15 07:29:45;;;;;;;7.95;4.20;;;;;;;36.02;17.63;100034.94;7345919;19;20802;-68
2023/05/15 07:32:11;;;;;;;5.63;3.20;;;;;;;35.90;17.73;100025.94;7343398;19;20010;-68
2023/05/15 07:34:37;;;;;;;6.15;3.40;;;;;;;35.68;17.49;100023.25;7342705;19;20033;-68
2023/05/15 07:37:02;;;;;;;4.63;3.20;;;;;;;35.73;17.68;100025.25;7343872;19;20660;-67
2023/05/15 07:39:28;;;;;;;6.28;3.42;;;;;;;35.69;17.23;100019.38;7342801;19;20021;-67
2023/05/15 07:41:54;;;;;;;5.78;3.90;;;;;;;35.74;17.31;100026.97;7345003;19;20021;-67
2023/05/15 07:44:20;;;;;;;4.00;3.67;;;;;;;36.64;17.41;100023.09;7343667;19;20090;-67
2023/05/15 07:46:46;;;;;;;5.68;3.53;;;;;;;38.11;16.47;100017.81;7344517;19;20073;-69
2023/05/15 07:49:12;;;;;;;4.15;3.75;;;;;;;38.62;15.93;100023.25;7345100;19;20014;-71
2023/05/15 07:51:37;;;;;;;5.57;4.07;;;;;;;38.52;15.67;100021.28;7344413;19;20021;-69
2023/05/15 07:54:03;;;;;;;7.93;4.40;;;;;;;38.59;15.60;100013.53;7343504;19;20018;-69
2023/05/15 07:56:28;;;;;;;5.00;4.50;;;;;;;38.45;16.20;100013.25;7346335;19;20015;-69
2023/05/15 07:58:53;;;;;;;4.68;3.88;;;;;;;39.30;15.74;100012.28;7342884;19;20011;-68
2023/05/15 08:01:19;;;;;;;3.85;3.60;;;;;;;38.94;14.91;100017.25;7341902;19;20034;-68
2023/05/15 08:03:46;;;;;;;7.43;3.85;;;;;;;38.30;15.22;100012.47;7342743;19;20363;-68
2023/05/15 08:06:12;;;;;;;4.10;3.80;;;;;;;36.75;15.71;100002.63;7341241;19;20033;-68
2023/05/15 08:08:37;;;;;;;5.05;3.80;;;;;;;36.01;16.48;100017.44;7341137;19;20078;-69
2023/05/15 08:11:02;;;;;;;4.07;3.72;;;;;;;35.77;16.86;100012.56;7340818;19;20013;-68
2023/05/15 08:13:27;;;;;;;7.43;4.35;;;;;;;35.22;17.13;100005.34;7343552;19;20027;-67
2023/05/15 08:15:52;;;;;;;7.53;3.85;;;;;;;34.77;17.18;100005.69;7341111;19;20350;-69
2023/05/15 08:18:16;;;;;;;5.72;4.10;;;;;;;33.66;18.20;100011.22;7341486;19;20517;-68
2023/05/15 08:20:41;;;;;;;4.40;4.00;;;;;;;33.80;18.52;100004.31;7342341;19;20469;-68
2023/05/15 08:23:06;;;;;;;5.70;3.97;;;;;;;35.25;17.71;99994.59;7342016;19;20014;-70
2023/05/15 08:25:30;;;;;;;6.50;3.55;;;;;;;37.09;16.40;100000.19;7340172;19;20127;-71
2023/05/15 08:27:55;;;;;;;5.43;4.00;;;;;;;37.90;15.73;99999.44;7340206;19;20498;-71
2023/05/15 08:30:20;;;;;;;5.47;4.03;;;;;;;38.86;15.27;99983.25;7340129;19;20098;-71
2023/05/15 08:32:47;;;;;;;8.40;4.30;;;;;;;39.20;15.07;99988.94;7342003;19;20027;-71
2023/05/15 08:35:14;;;;;;;5.15;4.40;;;;;;;38.74;14.94;99988.34;7340064;19;20043;-70
2023/05/15 08:37:40;;;;;;;4.97;4.22;;;;;;;38.27;15.48;99993.53;7342195;19;20039;-70
2023/05/15 08:40:09;;;;;;;5.00;4.60;;;;;;;37.75;15.17;99986.38;7338743;19;20006;-70
2023/05/15 08:42:54;;;;;;;10.35;4.63;;;;;;;38.06;15.50;99992.72;7340230;19;20018;-70
2023/05/15 08:45:20;;;;;;;10.43;4.47;;;;;;;36.90;15.40;99994.34;7341254;19;20010;-71
2023/05/15 08:47:46;;;;;;;4.93;4.20;;;;;;;36.70;15.97;99983.13;7343216;19;20019;-71
2023/05/15 08:50:15;;;;;;;4.47;4.07;;;;;;;37.57;15.36;99996.09;7342244;19;20030;-72
2023/05/15 08:52:42;;;;;;;4.72;4.20;;;;;;;38.40;15.09;99988.19;7341634;19;20383;-71
2023/05/15 08:55:11;;;;;;;8.50;4.78;;;;;;;39.26;14.33;99983.31;7339943;19;20010;-71
2023/05/15 08:57:43;;;;;;;5.53;5.00;;;;;;;40.99;13.89;99977.56;7339371;19;20050;-71
2023/05/15 09:00:13;;;;;;;5.35;4.85;;;;;;;41.96;13.49;100078.56;7340210;19;20090;-70
2023/05/15 09:02:41;;;;;;;5.80;5.20;;;;;;;43.34;12.47;99968.03;7343840;19;20021;-71
2023/05/15 09:05:08;;;;;;;6.53;5.55;;;;;;;44.32;12.01;99970.75;7340187;19;20470;-71
2023/05/15 09:07:34;;;;;;;6.93;6.40;;;;;;;44.24;11.88;99974.38;7339823;19;20047;-70
2023/05/15 09:10:02;;;;;;;9.40;6.53;;;;;;;43.62;11.98;99965.09;7339298;19;20014;-71
2023/05/15 09:12:35;;;;;;;6.30;5.80;;;;;;;44.03;11.73;99962.84;7339680;19;20013;-71
2023/05/15 09:15:09;;;;;;;6.55;5.93;;;;;;;43.39;12.21;99964.25;7339892;19;20749;-71
2023/05/15 09:17:35;;;;;;;5.60;5.22;;;;;;;40.87;12.63;99950.06;7340602;19;20032;-70
2023/05/15 09:20:04;;;;;;;6.60;5.82;;;;;;;39.31;13.48;99956.22;7340930;19;20014;-69
2023/05/15 09:22:40;;;;;;;5.25;4.75;;;;;;;39.73;13.72;99952.78;7345107;19;20018;-71
2023/05/15 09:25:05;;;;;;;10.60;4.97;;;;;;;39.39;13.57;99938.03;7340792;19;20045;-70
2023/05/15 09:27:41;;;;;;;6.88;4.93;;;;;;;39.13;14.22;99929.88;7340421;19;20019;-71
2023/05/15 09:30:09;;;;;;;5.95;5.13;;;;;;;39.09;13.89;99934.34;7348678;19;20037;-71
2023/05/15 09:32:36;;;;;;;5.40;4.90;;;;;;;39.24;13.23;99930.63;7354970;19;20007;-71
2023/05/15 09:35:01;;;;;;;7.35;5.13;;;;;;;39.00;13.33;99916.56;7356999;19;20011;-70
2023/05/15 09:37:33;;;;;;;5.25;4.85;;;;;;;39.86;13.62;99927.00;7357528;19;20037;-71
2023/05/15 09:40:09;;;;;;;6.07;5.30;;;;;;;41.42;13.26;99929.94;7353814;19;20030;-71
2023/05/15 09:42:35;;;;;;;6.60;6.07;;;;;;;40.54;13.20;99918.34;7355008;19;20042;-70
2023/05/15 09:45:00;;;;;;;6.95;5.75;;;;;;;39.60;13.39;99928.38;7352867;19;20026;-71
2023/05/15 09:47:24;;;;;;;5.97;5.35;;;;;;;39.78;13.45;99918.41;7356317;19;20031;-71
2023/05/15 09:49:53;;;;;;;7.65;4.80;;;;;;;40.45;13.02;99924.94;7355837;19;20120;-70
2023/05/15 09:52:18;;;;;;;6.13;5.60;;;;;;;41.01;12.76;99924.13;7353020;19;20055;-71
2023/05/15 09:54:45;;;;;;;6.18;5.57;;;;;;;41.54;12.73;99910.72;7355571;19;20469;-72
2023/05/15 09:57:12;;;;;;;6.38;5.88;;;;;;;42.79;12.03;99919.66;7357660;19;20018;-72
2023/05/15 09:59:46;;;;;;;6.80;6.30;;;;;;;44.42;11.80;99914.25;7357634;19;20031;-70
2023/05/15 10:02:24;;;;;;;7.78;7.07;;;;;;;44.90;11.90;99918.13;7356603;19;20015;-70
2023/05/15 10:04:56;;;;;;;8.55;7.82;;;;;;;44.19;11.38;99923.06;7357132;19;20016;-70
2023/05/15 10:07:32;;;;;;;7.85;6.30;;;;;;;42.75;12.27;99915.81;7362850;19;20022;-71
2023/05/15 10:10:04;;;;;;;6.35;5.75;;;;;;;41.59;12.62;99916.22;7357952;19;20022;-71
2023/05/15 10:12:31;;;;;;;6.88;6.38;;;;;;;41.22;12.24;99906.75;7354785;19;20018;-72
2023/05/15 10:14:58;;;;;;;6.55;5.95;;;;;;;39.81;12.86;99904.69;7352786;19;20069;-72
2023/05/15 10:17:33;;;;;;;7.18;5.57;;;;;;;38.47;13.72;99902.38;7353070;19;20349;-72
2023/05/15 10:20:05;;;;;;;5.20;4.70;;;;;;;36.92;14.66;99902.31;7355415;19;20018;-70
2023/05/15 10:22:40;;;;;;;5.13;4.63;;;;;;;36.55;14.88;99899.72;7357102;19;20440;-71
2023/05/15 10:25:24;;;;;;;6.13;4.40;;;;;;;33.83;16.03;99893.19;7354097;19;20461;-70
2023/05/15 10:27:50;;;;;;;6.07;3.90;;;;;;;30.77;18.00;99891.75;7354922;19;20023;-72
2023/05/15 10:30:17;;;;;;;4.80;3.78;;;;;;;28.97;19.73;99890.34;7355448;19;20019;-70
2023/05/15 10:32:44;;;;;;;5.70;3.38;;;;;;;27.85;20.77;99890.88;7356919;19;20470;-71
2023/05/15 10:35:10;;;;;;;4.20;3.63;;;;;;;26.78;21.01;99882.88;7356018;19;20022;-69
2023/05/15 10:37:37;;;;;;;2.75;2.55;;;;;;;25.70;22.39;99889.22;7355321;19;20021;-75
2023/05/15 10:40:08;;;;;;;5.75;3.58;;;;;;;25.09;23.11;99882.63;7357713;19;20110;-72
2023/05/15 10:42:43;;;;;;;4.47;3.05;;;;;;;24.49;23.98;99900.31;7352940;19;20470;-71
2023/05/15 10:45:12;;;;;;;6.35;3.00;;;;;;;23.72;24.32;99889.00;7352555;19;20018;-71
2023/05/15 10:47:38;;;;;;;4.65;2.67;;;;;;;23.11;24.69;99883.69;7350526;19;20019;-71
2023/05/15 10:50:05;;;;;;;8.02;2.75;;;;;;;22.80;25.30;99902.78;7347855;19;20022;-68
2023/05/15 10:52:35;;;;;;;7.00;3.45;;;;;;;22.05;26.46;99890.84;7347125;19;20018;-71
2023/05/15 10:55:07;;;;;;;5.85;3.28;;;;;;;21.55;27.50;99888.50;7347012;19;20090;-71
2023/05/15 10:57:32;;;;;;;2.97;2.67;;;;;;;21.50;27.07;99889.00;7347935;19;20017;-70
2023/05/15 10:59:57;;;;;;;4.97;2.63;;;;;;;21.03;27.51;99878.88;7343142;19;20525;-70
2023/05/15 11:02:24;;;;;;;4.15;2.42;;;;;;;20.72;28.19;99882.44;7344802;19;20471;-70
2023/05/15 11:05:00;;;;;;;6.70;2.90;;;;;;;20.76;27.96;99883.81;7345403;19;20065;-69
2023/05/15 11:07:25;;;;;;;5.82;3.00;;;;;;;20.69;28.42;99877.38;7343377;19;20006;-71
2023/05/15 11:09:53;;;;;;;3.45;2.88;;;;;;;20.66;28.97;99884.81;7346796;19;20054;-73
2023/05/15 11:12:19;;;;;;;5.15;2.92;;;;;;;20.63;28.32;99874.34;7346160;19;20043;-75
2023/05/15 11:14:51;;;;;;;6.22;2.83;;;;;;;20.65;28.52;99879.59;7349464;19;20029;-75
2023/05/15 11:17:16;;;;;;;4.85;2.50;;;;;;;20.54;27.95;99877.22;7348876;19;20343;-74
2023/05/15 11:19:50;;;;;;;3.97;3.10;;;;;;;20.60;28.10;99876.50;7344850;19;20026;-73
2023/05/15 11:22:20;;;;;;;6.65;2.83;;;;;;;20.51;28.80;99870.25;7342648;19;20470;-73
2023/05/15 11:24:54;;;;;;;3.85;2.42;;;;;;;20.55;28.99;99873.44;7346635;19;20015;-72
2023/05/15 11:27:23;;;;;;;4.18;2.45;;;;;;;20.32;29.02;99878.63;7344786;19;20142;-72